Airfield :
LOGIN :

Register | Disclaimer

   EN    FR    IT 

 










Legend :    VFR   Marginal VFR   IFR   Intensive IFR   Very Intensive IFR
Visi :
Ceiling :
>= 8 km
>= 3000ft
5 to 8 km
1000 to 3000 ft
1500m to 5 km
500 to 1000 ft
800 to 1500m
200 to 500 ft
< 800m
< 200 ft
Symbols :   Thunderstorms  Fog  Heavy snow  Heavy precipitations  Wind > 20 kt
SIGMETs :     Misc.  Thunderstorms  Icing  Turbulence  Mountain Waves  Volcanic Ashes






- Airport Elevation : 242 ft
- IATA code : DUB


EIDW - Dublin

CURRENT METAR :
  • 260100Z VRB03KT 9999 FEW018 SCT060 14/12 Q1011 NOSIG

EXPIRED METARs :
  • 260030Z VRB02KT 9999 FEW018 SCT060 13/11 Q1011 NOSIG
  • 260000Z 31003KT 9999 FEW018 SCT060 13/11 Q1011 NOSIG
  • 252330Z VRB02KT 9999 FEW018 SCT060 15/12 Q1011 NOSIG
  • 252300Z 01004KT 9999 FEW018 BKN060 15/12 Q1011 NOSIG
  • 252230Z VRB03KT 9999 FEW018 BKN060 16/13 Q1011 NOSIG

TAF TAF EIDW
Valid from the 26 at 00:00 until the 27 at 00:00 UTC


252300Z 2600/2624 VRB03KT 9999 FEW018
PROB40
TEMPO 2602/2607 3000 BR BKN004
BECMG 2605/2607 27008KT
PROB40
TEMPO 2607/2609 BKN010
TEMPO 2619/2624 -SHRA SCT018CB
PROB40
TEMPO 2621/2623 4000 SHRA BKN012



MET'MAP, your aeronautical weather chart ! - Copyright ORBIFLY December 2007 - Disclaimer

ORBIFLY MET'MAP TEAM :

Programming & Development : Alexandra Zaïnal
Concept & original design : Baudouin d'Aumeries
Assistance for programming : Marc-Olivier Méhu
Technical & hardware support : Manuel Goepfert

Contact : metmap@orbifly.com




SOURCES & CREDITS :

   NOAA